Archival Weather

Republic

Farmingdale, New York (KFRG)

Report from: Thursday, January 25, 2024 4:53 PM EST
Current time: Monday, June 17, 2024 3:05 AM EDT

Current weather – Weather history – Daily summaries
Weather forecast

Temperature12.8°C (55.0°F)
Dew point10.6°C (51.1°F)
Winds 3 kts (1.5 m/s, 3.5 mph) North-Northeast (30°)
Visibility10 mi. (16.1 km)
Clouds Scattered clouds 4,100 ft. (1,250 m)
Ceiling: Overcast 7,000 ft. (2,134 m)
Altimeter30.13 in.Hg (1020 mB)
Relative humidity86 %
Density altitude-323 ft. (-98 m)
Sea-level pressure102.0 kPa (1020 mB, 30.13 in.Hg)
Remarks Fully automated report
Automated weather observing station with precipitation discriminator
Present weather sensor not operating
Flight conditions Visual Meteorological Conditions
Raw dataKFRG 252153Z AUTO 03003KT 10SM SCT041 OVC070 13/11 A3013 RMK AO2 SLP204 T01280106 PWINO
An error has occurred. This application may no longer respond until reloaded. Reload 🗙